Aetna, Tennessee
Current Conditions -  °F | °C
As of 3:55 PM on Sunday 23 Nov 2014 (Local Time) from KPVE Reporting Station
Overcast Overcast  
Wind Chill: 59°   Ceiling: 1400
Heat Index: 59°   Visibility: 10mi
Dew Point: 57°   Wind: 8mph
Humidity: 94%   Direction: 140°SE
Pressure: 29.36"   Gusts: NA
Location:  35.7514°N, 87.5392°W
Report Text: KPVE 232155Z AUTO 14007KT 10SM BKN014 BKN020 OVC027 15/14 A2936 RMK
Loading
Personal Weather Stations






























Interactive Weather Map New forecast layout! Learn more

10-Day Weather Forecast

Advertisements
Track Severe Weather on mobile